sensor_id;sensor_type;location;lat;lon;timestamp;noise_LAeq;noise_LA_min;noise_LA_max;noise_LA01;noise_LA95
46393;Laerm;32099;53.588;10.176;2023-02-14T00:00:34;33.96;31.77;36.64;;
46393;Laerm;32099;53.588;10.176;2023-02-14T00:02:59;33.65;32.07;40.84;;
46393;Laerm;32099;53.588;10.176;2023-02-14T00:05:24;34.51;32.26;42.71;;
46393;Laerm;32099;53.588;10.176;2023-02-14T00:07:50;35.82;32.54;49.24;;
46393;Laerm;32099;53.588;10.176;2023-02-14T00:10:15;34.64;32.37;38.55;;
46393;Laerm;32099;53.588;10.176;2023-02-14T00:12:41;34.92;32.95;37.83;;
46393;Laerm;32099;53.588;10.176;2023-02-14T00:15:06;34.53;32.08;43.55;;
46393;Laerm;32099;53.588;10.176;2023-02-14T00:17:49;34.82;32.50;50.65;;
46393;Laerm;32099;53.588;10.176;2023-02-14T00:20:14;33.86;32.08;40.91;;
46393;Laerm;32099;53.588;10.176;2023-02-14T00:22:40;33.85;32.22;38.20;;
46393;Laerm;32099;53.588;10.176;2023-02-14T00:25:05;34.26;32.15;40.90;;
46393;Laerm;32099;53.588;10.176;2023-02-14T00:27:30;33.95;32.14;42.75;;
46393;Laerm;32099;53.588;10.176;2023-02-14T00:29:56;33.72;31.97;38.76;;
46393;Laerm;32099;53.588;10.176;2023-02-14T00:32:29;49.46;32.06;68.63;;
46393;Laerm;32099;53.588;10.176;2023-02-14T00:34:55;34.09;31.83;41.28;;
46393;Laerm;32099;53.588;10.176;2023-02-14T00:37:22;33.59;32.03;36.06;;
46393;Laerm;32099;53.588;10.176;2023-02-14T00:39:47;34.00;32.24;38.22;;
46393;Laerm;32099;53.588;10.176;2023-02-14T00:42:12;33.43;32.02;37.88;;
46393;Laerm;32099;53.588;10.176;2023-02-14T00:44:38;35.15;32.23;45.11;;
46393;Laerm;32099;53.588;10.176;2023-02-14T00:47:04;33.65;32.13;39.95;;
46393;Laerm;32099;53.588;10.176;2023-02-14T00:49:29;36.05;31.99;50.09;;
46393;Laerm;32099;53.588;10.176;2023-02-14T00:51:54;33.41;32.05;37.27;;
46393;Laerm;32099;53.588;10.176;2023-02-14T00:54:20;33.29;31.95;35.86;;
46393;Laerm;32099;53.588;10.176;2023-02-14T00:56:45;33.12;31.86;37.50;;
46393;Laerm;32099;53.588;10.176;2023-02-14T00:59:10;33.84;31.86;41.71;;
46393;Laerm;32099;53.588;10.176;2023-02-14T01:01:36;35.46;32.05;43.92;;
46393;Laerm;32099;53.588;10.176;2023-02-14T01:04:01;35.50;32.33;55.41;;
46393;Laerm;32099;53.588;10.176;2023-02-14T01:06:26;33.51;31.88;49.11;;
46393;Laerm;32099;53.588;10.176;2023-02-14T01:08:52;33.18;31.73;35.31;;
46393;Laerm;32099;53.588;10.176;2023-02-14T01:11:19;33.50;31.86;45.85;;
46393;Laerm;32099;53.588;10.176;2023-02-14T01:13:47;33.80;32.13;37.69;;
46393;Laerm;32099;53.588;10.176;2023-02-14T01:16:16;33.35;32.24;36.14;;
46393;Laerm;32099;53.588;10.176;2023-02-14T01:18:43;33.79;31.71;36.60;;
46393;Laerm;32099;53.588;10.176;2023-02-14T01:21:29;33.75;31.89;36.91;;
46393;Laerm;32099;53.588;10.176;2023-02-14T01:23:58;33.95;32.07;38.71;;
46393;Laerm;32099;53.588;10.176;2023-02-14T01:26:25;34.15;32.61;39.02;;
46393;Laerm;32099;53.588;10.176;2023-02-14T01:28:51;35.74;32.64;45.37;;
46393;Laerm;32099;53.588;10.176;2023-02-14T01:31:22;34.37;32.39;36.85;;
46393;Laerm;32099;53.588;10.176;2023-02-14T01:33:49;36.11;33.45;46.25;;
46393;Laerm;32099;53.588;10.176;2023-02-14T01:36:29;35.29;32.52;45.90;;
46393;Laerm;32099;53.588;10.176;2023-02-14T01:38:58;34.42;32.68;37.51;;
46393;Laerm;32099;53.588;10.176;2023-02-14T01:41:25;35.27;32.51;46.04;;
46393;Laerm;32099;53.588;10.176;2023-02-14T01:43:58;36.53;32.79;49.02;;
46393;Laerm;32099;53.588;10.176;2023-02-14T01:46:26;36.38;32.84;45.56;;
46393;Laerm;32099;53.588;10.176;2023-02-14T01:49:01;37.22;32.92;47.92;;
46393;Laerm;32099;53.588;10.176;2023-02-14T01:51:28;36.10;33.09;46.48;;
46393;Laerm;32099;53.588;10.176;2023-02-14T01:53:55;35.12;32.88;40.70;;
46393;Laerm;32099;53.588;10.176;2023-02-14T01:56:27;34.02;31.82;39.60;;
46393;Laerm;32099;53.588;10.176;2023-02-14T01:58:57;34.71;32.59;39.07;;
46393;Laerm;32099;53.588;10.176;2023-02-14T02:01:24;34.77;32.67;38.35;;
46393;Laerm;32099;53.588;10.176;2023-02-14T02:03:53;34.28;32.64;38.12;;
46393;Laerm;32099;53.588;10.176;2023-02-14T02:06:28;35.21;32.91;39.70;;
46393;Laerm;32099;53.588;10.176;2023-02-14T02:09:07;34.69;32.43;47.01;;
46393;Laerm;32099;53.588;10.176;2023-02-14T02:11:35;36.43;33.34;46.88;;
46393;Laerm;32099;53.588;10.176;2023-02-14T02:14:01;35.52;33.06;42.19;;
46393;Laerm;32099;53.588;10.176;2023-02-14T02:16:40;36.37;33.52;42.92;;
46393;Laerm;32099;53.588;10.176;2023-02-14T02:38:59;35.47;33.14;43.47;;
46393;Laerm;32099;53.588;10.176;2023-02-14T02:41:38;36.69;33.32;47.90;;
46393;Laerm;32099;53.588;10.176;2023-02-14T02:44:16;52.81;33.64;68.75;;
46393;Laerm;32099;53.588;10.176;2023-02-14T02:46:54;44.80;32.78;67.90;;
46393;Laerm;32099;53.588;10.176;2023-02-14T02:49:35;36.33;33.08;48.95;;
46393;Laerm;32099;53.588;10.176;2023-02-14T02:55:24;34.63;32.68;37.86;;
46393;Laerm;32099;53.588;10.176;2023-02-14T02:57:52;35.08;33.18;39.05;;
46393;Laerm;32099;53.588;10.176;2023-02-14T03:00:20;36.24;33.16;41.71;;
46393;Laerm;32099;53.588;10.176;2023-02-14T03:02:49;38.51;34.20;46.44;;
46393;Laerm;32099;53.588;10.176;2023-02-14T03:05:34;40.11;35.55;47.55;;
46393;Laerm;32099;53.588;10.176;2023-02-14T03:08:01;37.95;34.46;44.41;;
46393;Laerm;32099;53.588;10.176;2023-02-14T03:10:32;38.46;34.96;46.83;;
46393;Laerm;32099;53.588;10.176;2023-02-14T03:24:31;39.22;34.60;50.37;;
46393;Laerm;32099;53.588;10.176;2023-02-14T03:27:14;38.79;34.97;48.01;;
46393;Laerm;32099;53.588;10.176;2023-02-14T03:32:57;38.72;35.87;43.08;;
46393;Laerm;32099;53.588;10.176;2023-02-14T03:35:36;39.40;35.59;49.05;;
46393;Laerm;32099;53.588;10.176;2023-02-14T03:38:08;40.22;35.75;50.07;;
46393;Laerm;32099;53.588;10.176;2023-02-14T03:40:42;39.94;35.78;51.81;;
46393;Laerm;32099;53.588;10.176;2023-02-14T03:43:13;39.85;35.81;46.42;;
46393;Laerm;32099;53.588;10.176;2023-02-14T03:45:47;39.73;35.33;54.12;;
46393;Laerm;32099;53.588;10.176;2023-02-14T03:48:17;40.30;36.45;47.04;;
46393;Laerm;32099;53.588;10.176;2023-02-14T03:50:47;54.01;36.65;74.96;;
46393;Laerm;32099;53.588;10.176;2023-02-14T03:53:19;39.87;35.91;45.90;;
46393;Laerm;32099;53.588;10.176;2023-02-14T03:55:54;40.69;36.35;48.74;;
46393;Laerm;32099;53.588;10.176;2023-02-14T03:58:29;51.01;38.12;72.46;;
46393;Laerm;32099;53.588;10.176;2023-02-14T04:01:00;42.28;37.10;54.64;;
46393;Laerm;32099;53.588;10.176;2023-02-14T04:03:28;40.42;36.53;49.28;;
46393;Laerm;32099;53.588;10.176;2023-02-14T04:05:56;41.98;37.14;51.91;;
46393;Laerm;32099;53.588;10.176;2023-02-14T04:08:24;40.07;36.05;51.11;;
46393;Laerm;32099;53.588;10.176;2023-02-14T04:10:51;42.28;37.67;52.23;;
46393;Laerm;32099;53.588;10.176;2023-02-14T04:13:17;41.31;37.97;49.17;;
46393;Laerm;32099;53.588;10.176;2023-02-14T04:15:43;41.47;38.24;46.94;;
46393;Laerm;32099;53.588;10.176;2023-02-14T04:18:08;41.88;37.87;49.26;;
46393;Laerm;32099;53.588;10.176;2023-02-14T04:20:52;43.28;39.05;49.55;;
46393;Laerm;32099;53.588;10.176;2023-02-14T04:23:18;47.35;39.36;66.05;;
46393;Laerm;32099;53.588;10.176;2023-02-14T04:25:43;42.44;39.33;49.39;;
46393;Laerm;32099;53.588;10.176;2023-02-14T04:28:09;53.63;39.67;73.14;;
46393;Laerm;32099;53.588;10.176;2023-02-14T04:30:35;43.17;39.22;50.62;;
46393;Laerm;32099;53.588;10.176;2023-02-14T04:33:00;52.67;39.46;73.19;;
46393;Laerm;32099;53.588;10.176;2023-02-14T04:35:26;44.26;40.17;53.11;;
46393;Laerm;32099;53.588;10.176;2023-02-14T04:37:51;44.84;40.78;52.06;;
46393;Laerm;32099;53.588;10.176;2023-02-14T04:40:17;48.74;40.48;68.79;;
46393;Laerm;32099;53.588;10.176;2023-02-14T04:42:43;49.52;41.03;68.95;;
46393;Laerm;32099;53.588;10.176;2023-02-14T04:45:09;44.21;40.23;54.78;;
46393;Laerm;32099;53.588;10.176;2023-02-14T04:47:35;45.45;41.21;54.12;;
46393;Laerm;32099;53.588;10.176;2023-02-14T04:50:00;44.16;40.38;49.81;;
46393;Laerm;32099;53.588;10.176;2023-02-14T04:52:25;50.38;40.84;71.33;;
46393;Laerm;32099;53.588;10.176;2023-02-14T04:54:51;43.31;39.65;49.84;;
46393;Laerm;32099;53.588;10.176;2023-02-14T04:57:16;47.23;40.18;63.75;;
46393;Laerm;32099;53.588;10.176;2023-02-14T04:59:41;49.78;39.45;71.00;;
46393;Laerm;32099;53.588;10.176;2023-02-14T05:02:07;51.77;39.62;72.56;;
46393;Laerm;32099;53.588;10.176;2023-02-14T05:04:32;49.33;41.27;69.47;;
46393;Laerm;32099;53.588;10.176;2023-02-14T05:06:57;51.13;41.30;68.20;;
46393;Laerm;32099;53.588;10.176;2023-02-14T05:09:22;46.84;41.75;58.54;;
46393;Laerm;32099;53.588;10.176;2023-02-14T05:11:48;46.33;42.51;53.62;;
46393;Laerm;32099;53.588;10.176;2023-02-14T05:14:13;45.81;41.47;61.40;;
46393;Laerm;32099;53.588;10.176;2023-02-14T05:16:39;45.51;41.68;53.70;;
46393;Laerm;32099;53.588;10.176;2023-02-14T05:19:04;48.80;41.61;66.73;;
46393;Laerm;32099;53.588;10.176;2023-02-14T05:21:29;45.91;41.22;53.02;;
46393;Laerm;32099;53.588;10.176;2023-02-14T05:23:58;48.92;42.38;65.97;;
46393;Laerm;32099;53.588;10.176;2023-02-14T05:26:23;45.81;42.30;58.78;;
46393;Laerm;32099;53.588;10.176;2023-02-14T05:28:48;49.90;42.37;68.90;;
46393;Laerm;32099;53.588;10.176;2023-02-14T05:31:13;47.20;42.85;54.87;;
46393;Laerm;32099;53.588;10.176;2023-02-14T05:33:39;48.70;42.46;65.06;;
46393;Laerm;32099;53.588;10.176;2023-02-14T05:36:04;49.48;42.98;67.06;;
46393;Laerm;32099;53.588;10.176;2023-02-14T05:38:30;50.59;44.04;68.36;;
46393;Laerm;32099;53.588;10.176;2023-02-14T05:40:57;50.84;43.33;69.46;;
46393;Laerm;32099;53.588;10.176;2023-02-14T05:43:22;52.15;42.72;70.93;;
46393;Laerm;32099;53.588;10.176;2023-02-14T05:45:48;47.01;43.32;61.65;;
46393;Laerm;32099;53.588;10.176;2023-02-14T05:48:13;46.08;42.37;51.22;;
46393;Laerm;32099;53.588;10.176;2023-02-14T05:50:39;51.14;42.86;67.54;;
46393;Laerm;32099;53.588;10.176;2023-02-14T05:53:05;55.55;42.33;76.15;;
46393;Laerm;32099;53.588;10.176;2023-02-14T05:55:31;54.22;41.38;70.22;;
46393;Laerm;32099;53.588;10.176;2023-02-14T05:57:56;50.61;42.05;70.35;;
46393;Laerm;32099;53.588;10.176;2023-02-14T06:00:22;53.69;42.45;69.74;;
46393;Laerm;32099;53.588;10.176;2023-02-14T06:02:48;53.94;42.95;70.40;;
46393;Laerm;32099;53.588;10.176;2023-02-14T06:05:14;45.02;41.39;52.68;;
46393;Laerm;32099;53.588;10.176;2023-02-14T06:07:41;45.21;41.88;50.91;;
46393;Laerm;32099;53.588;10.176;2023-02-14T06:10:08;46.11;42.78;61.30;;
46393;Laerm;32099;53.588;10.176;2023-02-14T06:12:34;49.88;42.31;66.71;;
46393;Laerm;32099;53.588;10.176;2023-02-14T06:14:59;45.66;41.77;59.04;;
46393;Laerm;32099;53.588;10.176;2023-02-14T06:17:24;52.61;42.00;69.49;;
46393;Laerm;32099;53.588;10.176;2023-02-14T06:19:49;53.72;42.28;74.56;;
46393;Laerm;32099;53.588;10.176;2023-02-14T06:22:15;52.28;42.46;70.96;;
46393;Laerm;32099;53.588;10.176;2023-02-14T06:24:40;54.39;42.33;74.29;;
46393;Laerm;32099;53.588;10.176;2023-02-14T06:27:05;53.54;41.83;74.39;;
46393;Laerm;32099;53.588;10.176;2023-02-14T06:29:30;53.92;41.36;74.74;;
46393;Laerm;32099;53.588;10.176;2023-02-14T06:31:56;49.32;41.40;68.59;;
46393;Laerm;32099;53.588;10.176;2023-02-14T06:34:21;49.61;42.08;66.27;;
46393;Laerm;32099;53.588;10.176;2023-02-14T06:36:46;49.87;41.59;68.85;;
46393;Laerm;32099;53.588;10.176;2023-02-14T06:39:12;53.62;43.76;73.32;;
46393;Laerm;32099;53.588;10.176;2023-02-14T06:41:37;53.46;43.44;69.67;;
46393;Laerm;32099;53.588;10.176;2023-02-14T06:44:02;54.02;43.97;72.59;;
46393;Laerm;32099;53.588;10.176;2023-02-14T06:46:28;53.88;43.42;67.47;;
46393;Laerm;32099;53.588;10.176;2023-02-14T06:48:53;56.02;43.86;71.64;;
46393;Laerm;32099;53.588;10.176;2023-02-14T06:51:18;54.74;43.46;73.12;;
46393;Laerm;32099;53.588;10.176;2023-02-14T06:53:44;54.88;42.93;73.67;;
46393;Laerm;32099;53.588;10.176;2023-02-14T06:56:09;60.78;43.58;89.87;;
46393;Laerm;32099;53.588;10.176;2023-02-14T06:58:34;59.80;44.62;74.91;;
46393;Laerm;32099;53.588;10.176;2023-02-14T07:00:59;55.04;43.07;73.57;;
46393;Laerm;32099;53.588;10.176;2023-02-14T07:03:26;48.78;42.96;63.35;;
46393;Laerm;32099;53.588;10.176;2023-02-14T07:05:51;56.34;43.01;70.25;;
46393;Laerm;32099;53.588;10.176;2023-02-14T07:08:17;47.24;43.10;58.32;;
46393;Laerm;32099;53.588;10.176;2023-02-14T07:10:43;63.60;43.29;82.65;;
46393;Laerm;32099;53.588;10.176;2023-02-14T07:13:08;48.49;43.98;61.72;;
46393;Laerm;32099;53.588;10.176;2023-02-14T07:15:33;49.52;43.90;62.57;;
46393;Laerm;32099;53.588;10.176;2023-02-14T07:17:59;53.64;43.46;68.98;;
46393;Laerm;32099;53.588;10.176;2023-02-14T07:20:24;55.30;44.39;70.21;;
46393;Laerm;32099;53.588;10.176;2023-02-14T07:22:50;56.78;44.14;73.08;;
46393;Laerm;32099;53.588;10.176;2023-02-14T07:25:15;55.65;42.58;72.32;;
46393;Laerm;32099;53.588;10.176;2023-02-14T07:27:41;53.40;42.21;72.31;;
46393;Laerm;32099;53.588;10.176;2023-02-14T07:30:08;45.24;41.56;51.14;;
46393;Laerm;32099;53.588;10.176;2023-02-14T07:32:36;52.36;42.24;72.16;;
46393;Laerm;32099;53.588;10.176;2023-02-14T07:35:02;52.05;42.79;69.59;;
46393;Laerm;32099;53.588;10.176;2023-02-14T07:37:27;45.94;42.42;51.93;;
46393;Laerm;32099;53.588;10.176;2023-02-14T07:39:52;56.02;42.27;74.70;;
46393;Laerm;32099;53.588;10.176;2023-02-14T07:42:18;46.48;43.72;50.65;;
46393;Laerm;32099;53.588;10.176;2023-02-14T07:44:44;50.74;43.04;67.64;;
46393;Laerm;32099;53.588;10.176;2023-02-14T07:47:10;51.08;43.36;67.21;;
46393;Laerm;32099;53.588;10.176;2023-02-14T07:49:36;56.87;42.67;75.22;;
46393;Laerm;32099;53.588;10.176;2023-02-14T07:52:02;47.17;43.19;59.23;;
46393;Laerm;32099;53.588;10.176;2023-02-14T07:54:27;48.02;43.85;63.70;;
46393;Laerm;32099;53.588;10.176;2023-02-14T07:56:53;53.04;43.15;71.17;;
46393;Laerm;32099;53.588;10.176;2023-02-14T07:59:18;46.77;42.85;55.28;;
46393;Laerm;32099;53.588;10.176;2023-02-14T08:01:43;57.02;43.07;73.59;;
46393;Laerm;32099;53.588;10.176;2023-02-14T08:04:09;54.02;42.08;71.87;;
46393;Laerm;32099;53.588;10.176;2023-02-14T08:06:34;46.48;42.72;54.17;;
46393;Laerm;32099;53.588;10.176;2023-02-14T08:08:59;56.05;43.59;72.28;;
46393;Laerm;32099;53.588;10.176;2023-02-14T08:11:25;57.18;43.38;76.05;;
46393;Laerm;32099;53.588;10.176;2023-02-14T08:14:09;50.85;43.94;63.61;;
46393;Laerm;32099;53.588;10.176;2023-02-14T08:16:34;52.77;43.90;70.22;;
46393;Laerm;32099;53.588;10.176;2023-02-14T08:19:02;73.49;44.00;99.19;;
46393;Laerm;32099;53.588;10.176;2023-02-14T08:21:28;79.19;47.12;100.60;;
46393;Laerm;32099;53.588;10.176;2023-02-14T08:23:53;57.32;42.36;78.06;;
46393;Laerm;32099;53.588;10.176;2023-02-14T08:26:19;51.45;41.73;70.96;;
46393;Laerm;32099;53.588;10.176;2023-02-14T08:28:44;45.72;41.13;61.57;;
46393;Laerm;32099;53.588;10.176;2023-02-14T08:31:09;48.94;40.74;65.77;;
46393;Laerm;32099;53.588;10.176;2023-02-14T08:33:35;44.70;40.89;51.98;;
46393;Laerm;32099;53.588;10.176;2023-02-14T08:36:00;53.99;40.43;72.19;;
46393;Laerm;32099;53.588;10.176;2023-02-14T08:38:26;55.06;40.75;71.53;;
46393;Laerm;32099;53.588;10.176;2023-02-14T08:40:52;56.18;40.29;73.76;;
46393;Laerm;32099;53.588;10.176;2023-02-14T08:43:17;55.95;40.26;76.81;;
46393;Laerm;32099;53.588;10.176;2023-02-14T08:45:42;56.89;39.36;79.04;;
46393;Laerm;32099;53.588;10.176;2023-02-14T08:48:09;47.79;39.96;59.32;;
46393;Laerm;32099;53.588;10.176;2023-02-14T08:50:36;55.80;39.92;75.63;;
46393;Laerm;32099;53.588;10.176;2023-02-14T08:53:09;53.87;39.19;71.54;;
46393;Laerm;32099;53.588;10.176;2023-02-14T08:55:36;50.54;38.01;65.75;;
46393;Laerm;32099;53.588;10.176;2023-02-14T08:58:01;56.46;39.47;73.16;;
46393;Laerm;32099;53.588;10.176;2023-02-14T09:00:27;46.75;38.42;62.52;;
46393;Laerm;32099;53.588;10.176;2023-02-14T09:02:52;53.55;37.32;72.36;;
46393;Laerm;32099;53.588;10.176;2023-02-14T09:05:19;48.04;38.42;63.30;;
46393;Laerm;32099;53.588;10.176;2023-02-14T09:07:45;53.14;38.45;72.42;;
46393;Laerm;32099;53.588;10.176;2023-02-14T09:10:10;48.79;38.02;66.50;;
46393;Laerm;32099;53.588;10.176;2023-02-14T09:12:39;44.18;37.13;64.51;;
46393;Laerm;32099;53.588;10.176;2023-02-14T09:15:05;50.22;38.55;65.16;;
46393;Laerm;32099;53.588;10.176;2023-02-14T09:17:30;56.45;39.83;70.91;;
46393;Laerm;32099;53.588;10.176;2023-02-14T09:19:56;54.69;38.95;69.89;;
46393;Laerm;32099;53.588;10.176;2023-02-14T09:22:21;61.15;38.36;80.25;;
46393;Laerm;32099;53.588;10.176;2023-02-14T09:24:46;49.74;37.69;67.39;;
46393;Laerm;32099;53.588;10.176;2023-02-14T09:27:12;42.86;37.99;58.11;;
46393;Laerm;32099;53.588;10.176;2023-02-14T09:29:37;51.42;37.75;67.54;;
46393;Laerm;32099;53.588;10.176;2023-02-14T09:32:02;45.15;37.67;63.97;;
46393;Laerm;32099;53.588;10.176;2023-02-14T09:34:29;48.52;37.35;66.84;;
46393;Laerm;32099;53.588;10.176;2023-02-14T09:36:54;53.58;37.73;70.93;;
46393;Laerm;32099;53.588;10.176;2023-02-14T09:39:38;54.09;38.41;73.06;;
46393;Laerm;32099;53.588;10.176;2023-02-14T09:42:13;52.50;37.02;70.33;;
46393;Laerm;32099;53.588;10.176;2023-02-14T09:44:48;48.80;37.00;67.39;;
46393;Laerm;32099;53.588;10.176;2023-02-14T09:50:14;48.85;36.78;68.52;;
46393;Laerm;32099;53.588;10.176;2023-02-14T09:52:45;48.16;36.83;66.07;;
46393;Laerm;32099;53.588;10.176;2023-02-14T09:55:15;55.68;37.39;71.53;;
46393;Laerm;32099;53.588;10.176;2023-02-14T09:57:52;52.06;37.03;73.67;;
46393;Laerm;32099;53.588;10.176;2023-02-14T10:03:15;40.33;36.52;50.81;;
46393;Laerm;32099;53.588;10.176;2023-02-14T10:06:06;52.78;36.93;72.33;;
46393;Laerm;32099;53.588;10.176;2023-02-14T10:08:45;49.45;36.88;69.25;;
46393;Laerm;32099;53.588;10.176;2023-02-14T10:11:20;40.39;35.97;54.07;;
46393;Laerm;32099;53.588;10.176;2023-02-14T10:13:50;52.67;36.86;68.48;;
46393;Laerm;32099;53.588;10.176;2023-02-14T10:16:22;49.89;36.48;70.31;;
46393;Laerm;32099;53.588;10.176;2023-02-14T10:21:24;47.29;36.52;66.56;;
46393;Laerm;32099;53.588;10.176;2023-02-14T10:23:57;40.86;35.90;60.27;;
46393;Laerm;32099;53.588;10.176;2023-02-14T10:26:35;41.42;35.84;50.31;;
46393;Laerm;32099;53.588;10.176;2023-02-14T10:29:02;41.67;36.10;56.37;;
46393;Laerm;32099;53.588;10.176;2023-02-14T10:32:02;40.78;34.81;63.35;;
46393;Laerm;32099;53.588;10.176;2023-02-14T10:37:40;43.42;35.96;64.27;;
46393;Laerm;32099;53.588;10.176;2023-02-14T10:43:11;52.06;35.15;71.21;;
46393;Laerm;32099;53.588;10.176;2023-02-14T10:45:50;59.80;35.95;78.51;;
46393;Laerm;32099;53.588;10.176;2023-02-14T10:48:32;50.27;34.86;71.18;;
46393;Laerm;32099;53.588;10.176;2023-02-14T10:53:35;39.78;35.37;56.36;;
46393;Laerm;32099;53.588;10.176;2023-02-14T10:56:07;50.44;34.80;67.16;;
46393;Laerm;32099;53.588;10.176;2023-02-14T10:58:38;50.18;35.22;71.39;;
46393;Laerm;32099;53.588;10.176;2023-02-14T11:01:16;45.32;34.75;63.46;;
46393;Laerm;32099;53.588;10.176;2023-02-14T11:03:54;49.46;34.79;70.09;;
46393;Laerm;32099;53.588;10.176;2023-02-14T11:06:22;44.78;35.90;59.95;;
46393;Laerm;32099;53.588;10.176;2023-02-14T11:08:47;41.40;35.33;71.58;;
46393;Laerm;32099;53.588;10.176;2023-02-14T11:11:19;40.00;34.74;54.29;;
46393;Laerm;32099;53.588;10.176;2023-02-14T11:13:47;50.42;35.21;64.03;;
46393;Laerm;32099;53.588;10.176;2023-02-14T11:16:34;51.67;35.04;68.88;;
46393;Laerm;32099;53.588;10.176;2023-02-14T11:19:07;45.36;34.94;64.38;;
46393;Laerm;32099;53.588;10.176;2023-02-14T11:21:39;47.40;34.24;65.79;;
46393;Laerm;32099;53.588;10.176;2023-02-14T11:24:26;49.49;34.52;66.41;;
46393;Laerm;32099;53.588;10.176;2023-02-14T11:32:07;52.07;34.07;70.66;;
46393;Laerm;32099;53.588;10.176;2023-02-14T11:34:39;50.05;34.53;68.07;;
46393;Laerm;32099;53.588;10.176;2023-02-14T11:39:46;39.34;34.96;52.15;;
46393;Laerm;32099;53.588;10.176;2023-02-14T11:42:12;51.61;35.17;73.55;;
46393;Laerm;32099;53.588;10.176;2023-02-14T11:44:53;51.60;36.24;71.12;;
46393;Laerm;32099;53.588;10.176;2023-02-14T11:47:25;52.55;35.62;72.77;;
46393;Laerm;32099;53.588;10.176;2023-02-14T11:50:00;50.93;35.74;67.89;;
46393;Laerm;32099;53.588;10.176;2023-02-14T11:52:27;53.38;36.70;73.91;;
46393;Laerm;32099;53.588;10.176;2023-02-14T11:54:55;57.12;35.01;85.16;;
46393;Laerm;32099;53.588;10.176;2023-02-14T11:57:27;48.49;35.32;73.12;;
46393;Laerm;32099;53.588;10.176;2023-02-14T11:59:56;47.93;34.97;70.19;;
46393;Laerm;32099;53.588;10.176;2023-02-14T12:02:26;40.68;34.60;56.85;;
46393;Laerm;32099;53.588;10.176;2023-02-14T12:04:56;56.68;36.56;75.47;;
46393;Laerm;32099;53.588;10.176;2023-02-14T12:07:26;51.96;36.11;68.28;;
46393;Laerm;32099;53.588;10.176;2023-02-14T12:21:34;52.39;35.56;69.29;;
46393;Laerm;32099;53.588;10.176;2023-02-14T12:29:56;54.31;35.71;71.61;;
46393;Laerm;32099;53.588;10.176;2023-02-14T12:32:27;49.74;34.81;73.40;;
46393;Laerm;32099;53.588;10.176;2023-02-14T12:35:01;47.56;35.77;66.30;;
46393;Laerm;32099;53.588;10.176;2023-02-14T12:37:36;50.99;35.33;69.21;;
46393;Laerm;32099;53.588;10.176;2023-02-14T12:42:59;40.54;32.74;55.92;;
46393;Laerm;32099;53.588;10.176;2023-02-14T12:51:38;44.08;29.93;59.39;;
46393;Laerm;32099;53.588;10.176;2023-02-14T12:54:41;33.38;29.93;43.62;;
46393;Laerm;32099;53.588;10.176;2023-02-14T13:00:03;46.67;30.39;65.73;;
46393;Laerm;32099;53.588;10.176;2023-02-14T13:03:18;38.58;30.24;56.24;;
46393;Laerm;32099;53.588;10.176;2023-02-14T13:06:03;39.78;30.74;55.87;;
46393;Laerm;32099;53.588;10.176;2023-02-14T13:08:52;47.34;32.84;64.66;;
46393;Laerm;32099;53.588;10.176;2023-02-14T13:11:47;49.42;30.73;79.68;;
46393;Laerm;32099;53.588;10.176;2023-02-14T13:20:01;49.57;31.80;67.84;;
46393;Laerm;32099;53.588;10.176;2023-02-14T13:22:28;46.48;30.61;66.66;;
46393;Laerm;32099;53.588;10.176;2023-02-14T13:25:14;34.13;30.25;50.73;;
46393;Laerm;32099;53.588;10.176;2023-02-14T13:27:41;34.59;30.12;46.53;;
46393;Laerm;32099;53.588;10.176;2023-02-14T13:30:15;44.72;30.11;66.18;;
46393;Laerm;32099;53.588;10.176;2023-02-14T13:32:45;34.69;30.27;55.54;;
46393;Laerm;32099;53.588;10.176;2023-02-14T13:35:16;45.70;30.98;64.14;;
46393;Laerm;32099;53.588;10.176;2023-02-14T13:37:48;45.41;30.50;64.26;;
46393;Laerm;32099;53.588;10.176;2023-02-14T13:40:19;35.06;30.98;43.48;;
46393;Laerm;32099;53.588;10.176;2023-02-14T13:48:11;47.31;30.62;62.89;;
46393;Laerm;32099;53.588;10.176;2023-02-14T13:53:39;39.43;31.44;54.70;;
46393;Laerm;32099;53.588;10.176;2023-02-14T13:56:29;43.84;30.96;63.11;;
46393;Laerm;32099;53.588;10.176;2023-02-14T13:59:03;46.77;30.96;61.05;;
46393;Laerm;32099;53.588;10.176;2023-02-14T14:01:40;48.31;31.26;65.79;;
46393;Laerm;32099;53.588;10.176;2023-02-14T14:17:28;48.27;32.04;64.90;;
46393;Laerm;32099;53.588;10.176;2023-02-14T14:19:54;47.04;32.47;62.65;;
46393;Laerm;32099;53.588;10.176;2023-02-14T14:22:22;61.50;32.87;78.53;;
46393;Laerm;32099;53.588;10.176;2023-02-14T14:27:35;49.59;33.40;66.52;;
46393;Laerm;32099;53.588;10.176;2023-02-14T14:30:17;45.86;33.34;65.68;;
46393;Laerm;32099;53.588;10.176;2023-02-14T14:32:43;44.74;30.85;60.59;;
46393;Laerm;32099;53.588;10.176;2023-02-14T14:37:46;45.76;31.25;61.48;;
46393;Laerm;32099;53.588;10.176;2023-02-14T14:40:27;35.77;31.56;47.92;;
46393;Laerm;32099;53.588;10.176;2023-02-14T14:42:56;42.98;31.05;61.26;;
46393;Laerm;32099;53.588;10.176;2023-02-14T14:45:25;34.98;31.08;46.35;;
46393;Laerm;32099;53.588;10.176;2023-02-14T14:47:53;47.77;32.11;61.85;;
46393;Laerm;32099;53.588;10.176;2023-02-14T14:50:22;46.16;31.14;61.65;;
46393;Laerm;32099;53.588;10.176;2023-02-14T14:52:51;44.86;31.71;65.56;;
46393;Laerm;32099;53.588;10.176;2023-02-14T14:55:21;43.07;31.26;60.93;;
46393;Laerm;32099;53.588;10.176;2023-02-14T14:57:51;47.54;31.59;67.44;;
46393;Laerm;32099;53.588;10.176;2023-02-14T15:00:28;36.27;31.34;49.02;;
46393;Laerm;32099;53.588;10.176;2023-02-14T15:03:05;44.14;31.70;59.76;;
46393;Laerm;32099;53.588;10.176;2023-02-14T15:05:45;43.63;31.11;60.30;;
46393;Laerm;32099;53.588;10.176;2023-02-14T15:08:22;46.81;31.29;62.88;;
46393;Laerm;32099;53.588;10.176;2023-02-14T15:10:55;46.69;31.61;63.84;;
46393;Laerm;32099;53.588;10.176;2023-02-14T15:13:45;44.55;32.08;60.63;;
46393;Laerm;32099;53.588;10.176;2023-02-14T15:17:00;43.38;32.01;62.49;;
46393;Laerm;32099;53.588;10.176;2023-02-14T15:19:40;37.82;31.97;50.09;;
46393;Laerm;32099;53.588;10.176;2023-02-14T15:22:27;49.06;32.60;63.80;;
46393;Laerm;32099;53.588;10.176;2023-02-14T15:24:54;44.77;32.56;61.44;;
46393;Laerm;32099;53.588;10.176;2023-02-14T15:27:22;42.60;32.55;60.16;;
46393;Laerm;32099;53.588;10.176;2023-02-14T15:29:57;44.46;33.24;62.66;;
46393;Laerm;32099;53.588;10.176;2023-02-14T15:32:27;49.01;33.84;64.92;;
46393;Laerm;32099;53.588;10.176;2023-02-14T15:34:54;40.30;33.14;60.00;;
46393;Laerm;32099;53.588;10.176;2023-02-14T15:37:21;40.00;33.77;54.48;;
46393;Laerm;32099;53.588;10.176;2023-02-14T15:39:49;47.31;33.78;64.39;;
46393;Laerm;32099;53.588;10.176;2023-02-14T15:42:25;51.80;33.75;69.03;;
46393;Laerm;32099;53.588;10.176;2023-02-14T15:45:21;50.26;33.72;67.30;;
46393;Laerm;32099;53.588;10.176;2023-02-14T15:47:50;45.16;33.56;62.16;;
46393;Laerm;32099;53.588;10.176;2023-02-14T15:50:21;37.99;33.57;49.97;;